createdAt,value
2023-01-17T00:01:28.876Z,97285.47
2023-01-17T00:03:56.386Z,97285.25
2023-01-17T00:06:24.528Z,97272.44
2023-01-17T00:08:51.769Z,97272.44
2023-01-17T00:11:19.110Z,97263.69
2023-01-17T00:13:46.377Z,97265.44
2023-01-17T00:16:15.128Z,97264.94
2023-01-17T00:18:42.393Z,97262.47
2023-01-17T00:21:09.600Z,97256.66
2023-01-17T00:23:36.965Z,97254.94
2023-01-17T00:26:06.095Z,97241.63
2023-01-17T00:28:35.494Z,97241.91
2023-01-17T00:31:04.000Z,97244.66
2023-01-17T00:33:32.908Z,97240.66
2023-01-17T00:36:00.827Z,97240.66
2023-01-17T00:38:30.001Z,97227.63
2023-01-17T00:41:02.568Z,97224.66
2023-01-17T00:43:30.594Z,97219.91
2023-01-17T00:45:57.820Z,97215.13
2023-01-17T00:48:25.070Z,97208.41
2023-01-17T00:50:53.611Z,97204.81
2023-01-17T00:53:20.876Z,97201.13
2023-01-17T00:55:48.130Z,97200.84
2023-01-17T00:58:15.354Z,97196.81
2023-01-17T01:00:42.597Z,97195.38
2023-01-17T01:03:10.224Z,97196.66
2023-01-17T01:05:37.547Z,97192.63
2023-01-17T01:08:16.742Z,97197.88
2023-01-17T01:10:45.155Z,97184.81
2023-01-17T01:13:12.365Z,97195.38
2023-01-17T01:15:39.624Z,97198.88
2023-01-17T01:18:08.061Z,97196.13
2023-01-17T01:20:35.380Z,97189.66
2023-01-17T01:23:04.220Z,97192.41
2023-01-17T01:25:32.807Z,97189.66
2023-01-17T01:28:03.929Z,97212.13
2023-01-17T01:30:31.744Z,97201.56
2023-01-17T01:32:58.984Z,97198.78
2023-01-17T01:35:26.366Z,97197.22
2023-01-17T01:37:53.776Z,97211.38
2023-01-17T01:40:22.086Z,97204.84
2023-01-17T01:42:52.344Z,97204.84
2023-01-17T01:45:21.754Z,97205.75
2023-01-17T01:47:51.372Z,97206.88
2023-01-17T01:50:21.385Z,97222.63
2023-01-17T01:52:58.884Z,97204.50
2023-01-17T01:55:29.555Z,97205.69
2023-01-17T01:58:02.209Z,97205.41
2023-01-17T02:00:35.237Z,97198.38
2023-01-17T02:03:06.542Z,97200.88
2023-01-17T02:05:35.255Z,97202.56
2023-01-17T02:08:05.580Z,97210.09
2023-01-17T02:10:33.419Z,97208.84
2023-01-17T02:13:03.127Z,97197.84
2023-01-17T02:15:32.969Z,97204.59
2023-01-17T02:18:14.907Z,97197.84
2023-01-17T02:21:05.038Z,97192.13
2023-01-17T02:24:05.471Z,97179.41
2023-01-17T02:26:55.373Z,97173.88
2023-01-17T02:30:19.394Z,97172.63
2023-01-17T02:33:05.741Z,97179.13
2023-01-17T02:35:44.904Z,97175.59
2023-01-17T02:38:27.292Z,97180.34
2023-01-17T02:41:00.582Z,97191.34
2023-01-17T02:43:28.352Z,97196.13
2023-01-17T02:45:55.597Z,97209.63
2023-01-17T02:48:27.944Z,97215.88
2023-01-17T02:51:11.539Z,97220.13
2023-01-17T02:53:51.679Z,97220.41
2023-01-17T02:56:28.988Z,97223.44
2023-01-17T02:59:12.051Z,97214.44
2023-01-17T03:01:53.263Z,97220.22
2023-01-17T03:04:27.992Z,97220.00
2023-01-17T03:06:58.489Z,97227.56
2023-01-17T03:09:26.430Z,97229.00
2023-01-17T03:11:53.946Z,97238.56
2023-01-17T03:14:21.135Z,97234.56
2023-01-17T03:16:48.855Z,97241.81
2023-01-17T03:19:16.249Z,97242.56
2023-01-17T03:21:47.616Z,97256.06
2023-01-17T03:24:14.963Z,97308.13
2023-01-17T03:26:42.399Z,97236.81
2023-01-17T03:29:09.646Z,97176.91
2023-01-17T03:31:36.913Z,97085.81
2023-01-17T03:34:04.230Z,97003.47
2023-01-17T03:36:31.427Z,96944.88
2023-01-17T03:39:00.113Z,96903.84
2023-01-17T03:41:27.598Z,96866.28
2023-01-17T03:43:55.019Z,96834.22
2023-01-17T03:46:24.585Z,96825.47
2023-01-17T03:48:52.720Z,96804.94
2023-01-17T03:51:20.442Z,96784.66
2023-01-17T03:53:47.740Z,96793.16
2023-01-17T03:56:16.403Z,96787.66
2023-01-17T03:58:43.690Z,96788.16
2023-01-17T04:01:11.382Z,96801.16
2023-01-17T04:03:38.919Z,96815.69
2023-01-17T04:06:06.607Z,96809.41
2023-01-17T04:08:33.926Z,96814.41
2023-01-17T04:11:01.173Z,96820.66
2023-01-17T04:13:29.744Z,96822.66
2023-01-17T04:15:57.011Z,96834.41
2023-01-17T04:18:24.278Z,96846.38
2023-01-17T04:20:51.847Z,96866.13
2023-01-17T04:23:19.497Z,96866.38
2023-01-17T04:25:46.712Z,96879.63
2023-01-17T04:28:14.156Z,96881.38
2023-01-17T04:30:42.721Z,96895.84
2023-01-17T04:33:10.026Z,96922.84
2023-01-17T04:35:37.220Z,96929.09
2023-01-17T04:38:04.453Z,96959.31
2023-01-17T04:40:31.749Z,96975.75
2023-01-17T04:42:59.001Z,96984.78
2023-01-17T04:45:26.288Z,97004.78
2023-01-17T04:47:54.915Z,97013.50
2023-01-17T04:50:22.126Z,97026.31
2023-01-17T04:52:49.512Z,97036.84
2023-01-17T04:55:16.767Z,97029.31
2023-01-17T04:57:43.978Z,97032.56
2023-01-17T05:00:12.202Z,97036.34
2023-01-17T05:02:39.863Z,97029.31
2023-01-17T05:05:09.570Z,97045.38
2023-01-17T05:07:36.771Z,97055.88
2023-01-17T05:10:04.671Z,97066.34
2023-01-17T05:12:32.102Z,97060.34
2023-01-17T05:14:59.306Z,97081.13
2023-01-17T05:17:26.630Z,97087.38
2023-01-17T05:19:53.890Z,97085.09
2023-01-17T05:22:22.509Z,97093.84
2023-01-17T05:24:49.861Z,97096.31
2023-01-17T05:27:17.159Z,97099.84
2023-01-17T05:29:44.323Z,97108.31
2023-01-17T05:32:11.656Z,97124.81
2023-01-17T05:34:38.880Z,97138.34
2023-01-17T05:37:06.185Z,97134.56
2023-01-17T05:39:34.727Z,97143.31
2023-01-17T05:42:01.974Z,97151.06
2023-01-17T05:44:29.172Z,97162.34
2023-01-17T05:46:56.629Z,97179.91
2023-01-17T05:49:23.890Z,97189.09
2023-01-17T05:51:52.920Z,97191.41
2023-01-17T05:54:21.950Z,97186.09
2023-01-17T05:56:50.507Z,97203.81
2023-01-17T05:59:28.587Z,97202.59
2023-01-17T06:02:03.404Z,97202.13
2023-01-17T06:04:30.628Z,97199.91
2023-01-17T06:06:57.944Z,97216.09
2023-01-17T06:09:25.088Z,97233.38
2023-01-17T06:11:53.700Z,97235.22
2023-01-17T06:14:20.877Z,97241.03
2023-01-17T06:16:48.224Z,97251.50
2023-01-17T06:19:15.400Z,97266.28
2023-01-17T06:21:42.617Z,97281.91
2023-01-17T06:24:09.888Z,97287.69
2023-01-17T06:26:37.152Z,97296.59
2023-01-17T06:29:05.698Z,97300.56
2023-01-17T06:31:33.055Z,97325.28
2023-01-17T06:34:01.912Z,97329.56
2023-01-17T06:36:29.205Z,97338.00
2023-01-17T06:38:56.402Z,97355.16
2023-01-17T06:41:23.896Z,97372.66
2023-01-17T06:43:52.875Z,97393.91
2023-01-17T06:46:22.529Z,97387.94
2023-01-17T06:48:49.967Z,97382.72
2023-01-17T06:51:17.202Z,97397.69
2023-01-17T06:53:44.435Z,97409.72
2023-01-17T06:56:11.713Z,97424.31
2023-01-17T06:58:38.873Z,97419.00
2023-01-17T07:01:07.387Z,97419.00
2023-01-17T07:03:36.049Z,97419.97
2023-01-17T07:06:04.160Z,97439.84
2023-01-17T07:08:32.147Z,97446.28
2023-01-17T07:11:00.963Z,97442.94
2023-01-17T07:13:28.767Z,97471.19
2023-01-17T07:15:56.558Z,97475.44
2023-01-17T07:18:23.822Z,97476.22
2023-01-17T07:20:53.007Z,97476.22
2023-01-17T07:23:21.816Z,98047.81
2023-01-17T07:25:51.689Z,97683.47
2023-01-17T07:28:19.124Z,97361.75
2023-01-17T07:30:46.546Z,97086.66
2023-01-17T07:33:13.719Z,97020.06
2023-01-17T07:35:41.060Z,96988.03
2023-01-17T07:38:14.022Z,96981.44
2023-01-17T07:40:42.508Z,96983.72
2023-01-17T07:43:10.584Z,96985.69
2023-01-17T07:45:41.010Z,96991.19
2023-01-17T07:48:08.285Z,97002.75
2023-01-17T07:50:35.843Z,97027.75
2023-01-17T07:53:03.409Z,97028.97
2023-01-17T07:55:32.077Z,97061.69
2023-01-17T07:58:01.259Z,97062.41
2023-01-17T08:00:30.123Z,97091.41
2023-01-17T08:02:57.905Z,97104.56
2023-01-17T08:05:25.148Z,97145.03
2023-01-17T08:07:52.515Z,97147.47
2023-01-17T08:10:20.378Z,97146.94
2023-01-17T08:12:50.137Z,97166.16
2023-01-17T08:15:18.387Z,97184.03
2023-01-17T08:17:46.270Z,97190.22
2023-01-17T08:20:13.726Z,97201.66
2023-01-17T08:22:41.083Z,97205.66
2023-01-17T08:25:09.335Z,97220.06
2023-01-17T08:27:36.997Z,97228.56
2023-01-17T08:30:07.222Z,97252.41
2023-01-17T08:32:34.502Z,97256.97
2023-01-17T08:35:01.712Z,97275.53
2023-01-17T08:37:28.973Z,97267.00
2023-01-17T08:39:56.174Z,97281.97
2023-01-17T08:42:23.449Z,97291.09
2023-01-17T08:44:50.645Z,97299.31
2023-01-17T08:47:19.198Z,97302.06
2023-01-17T08:49:46.359Z,97310.13
2023-01-17T08:52:13.610Z,97317.41
2023-01-17T08:54:40.769Z,97322.63
2023-01-17T08:57:08.004Z,97344.88
2023-01-17T08:59:35.177Z,97364.88
2023-01-17T09:02:02.445Z,97365.16
2023-01-17T09:04:31.004Z,97374.44
2023-01-17T09:06:58.388Z,97368.47
2023-01-17T09:09:25.625Z,97379.00
2023-01-17T09:11:53.266Z,97384.31
2023-01-17T09:14:20.492Z,97387.63
2023-01-17T09:16:47.777Z,97386.22
2023-01-17T09:19:15.029Z,97392.47
2023-01-17T09:21:43.749Z,97386.50
2023-01-17T09:24:11.008Z,97402.34
2023-01-17T09:26:38.536Z,97407.19
2023-01-17T09:29:05.813Z,97407.00
2023-01-17T09:31:33.317Z,97416.41
2023-01-17T09:34:00.580Z,97420.19
2023-01-17T09:36:28.269Z,97414.34
2023-01-17T09:38:57.773Z,97418.69
2023-01-17T09:41:28.426Z,97409.78
2023-01-17T09:44:01.344Z,97418.91
2023-01-17T09:46:30.687Z,97410.19
2023-01-17T09:49:06.592Z,97406.56
2023-01-17T09:51:34.450Z,97413.59
2023-01-17T09:54:03.063Z,97414.75
2023-01-17T09:56:35.254Z,97408.84
2023-01-17T09:59:19.056Z,97414.34
2023-01-17T10:01:57.317Z,97390.44
2023-01-17T10:04:41.193Z,97389.03
2023-01-17T10:07:22.452Z,97388.16
2023-01-17T10:10:05.683Z,97382.81
2023-01-17T10:12:39.545Z,97385.28
2023-01-17T10:15:44.272Z,97381.22
2023-01-17T10:18:30.365Z,97394.41
2023-01-17T10:21:04.401Z,97391.00
2023-01-17T10:23:47.969Z,97393.56
2023-01-17T10:26:21.963Z,97390.59
2023-01-17T10:28:50.724Z,97395.72
2023-01-17T10:31:22.685Z,97395.56
2023-01-17T10:33:52.214Z,97400.59
2023-01-17T10:36:21.300Z,97403.09
2023-01-17T10:38:51.253Z,97399.94
2023-01-17T10:41:24.864Z,97389.38
2023-01-17T10:44:01.289Z,97392.41
2023-01-17T10:46:33.983Z,97376.81
2023-01-17T10:49:02.397Z,97361.84
2023-01-17T10:52:02.114Z,97333.97
2023-01-17T10:54:49.542Z,97295.13
2023-01-17T10:57:22.289Z,97285.91
2023-01-17T10:59:50.638Z,97271.16
2023-01-17T11:02:25.338Z,97287.09
2023-01-17T11:04:55.554Z,97281.63
2023-01-17T11:07:24.497Z,97285.56
2023-01-17T11:09:54.441Z,97277.38
2023-01-17T11:12:29.155Z,97289.38
2023-01-17T11:15:19.095Z,97286.91
2023-01-17T11:17:49.421Z,97285.41
2023-01-17T11:20:21.646Z,97277.81
2023-01-17T11:23:02.423Z,97287.81
2023-01-17T11:25:31.393Z,97274.38
2023-01-17T11:28:03.716Z,97282.47
2023-01-17T11:30:30.971Z,97273.59
2023-01-17T11:32:58.971Z,97272.16
2023-01-17T11:35:28.860Z,97277.47
2023-01-17T11:38:11.856Z,97254.91
2023-01-17T11:40:41.155Z,97240.75
2023-01-17T11:43:21.605Z,97223.97
2023-01-17T11:46:01.778Z,97208.63
2023-01-17T11:48:34.529Z,97206.06
2023-01-17T11:51:03.334Z,97194.28
2023-01-17T11:53:33.452Z,97211.59
2023-01-17T11:56:05.129Z,97219.66
2023-01-17T11:58:35.637Z,97225.22
2023-01-17T12:01:16.709Z,97206.09
2023-01-17T12:04:18.075Z,97193.47
2023-01-17T12:06:57.750Z,97209.81
2023-01-17T12:09:35.533Z,97180.97
2023-01-17T12:12:10.487Z,97186.75
2023-01-17T12:14:50.805Z,97176.91
2023-01-17T12:17:31.340Z,97185.25
2023-01-17T12:20:00.324Z,97216.16
2023-01-17T12:22:42.679Z,97172.41
2023-01-17T12:25:26.857Z,97188.97
2023-01-17T12:28:11.004Z,97197.56
2023-01-17T12:30:52.208Z,97203.22
2023-01-17T12:33:25.152Z,97222.03
2023-01-17T12:35:57.132Z,97234.88
2023-01-17T12:38:32.816Z,97249.16
2023-01-17T12:41:05.969Z,97259.09
2023-01-17T12:43:36.615Z,97281.09
2023-01-17T12:46:11.753Z,97286.06
2023-01-17T12:48:39.053Z,97298.78
2023-01-17T12:51:12.918Z,97307.34
2023-01-17T12:53:46.607Z,97318.56
2023-01-17T12:56:22.470Z,97320.28
2023-01-17T12:58:55.407Z,97315.84
2023-01-17T13:01:29.465Z,97306.53
2023-01-17T13:04:07.435Z,97301.00
2023-01-17T13:06:47.699Z,97296.16
2023-01-17T13:09:19.391Z,97292.91
2023-01-17T13:11:51.317Z,97283.88
2023-01-17T13:14:18.613Z,97294.34
2023-01-17T13:16:54.683Z,97315.22
2023-01-17T13:19:31.775Z,97325.41
2023-01-17T13:22:00.762Z,97333.28
2023-01-17T13:24:44.189Z,97348.97
2023-01-17T13:27:29.109Z,97353.00
2023-01-17T13:30:14.554Z,97361.50
2023-01-17T13:33:01.354Z,97375.78
2023-01-17T13:35:37.646Z,97383.44
2023-01-17T13:38:28.822Z,97379.78
2023-01-17T13:40:58.185Z,97391.19
2023-01-17T13:43:33.566Z,97392.91
2023-01-17T13:46:02.199Z,97366.16
2023-01-17T13:48:33.161Z,97370.34
2023-01-17T13:51:02.149Z,97370.03
2023-01-17T13:53:57.217Z,97333.88
2023-01-17T13:56:30.062Z,97337.13
2023-01-17T13:59:03.360Z,97323.28
2023-01-17T14:01:50.003Z,97322.06
2023-01-17T14:04:19.062Z,97302.44
2023-01-17T14:06:48.897Z,97298.84
2023-01-17T14:09:24.109Z,97313.66
2023-01-17T14:11:58.247Z,97312.25
2023-01-17T14:14:46.969Z,97337.22
2023-01-17T14:17:46.836Z,97330.63
2023-01-17T14:20:48.630Z,97337.44
2023-01-17T14:23:48.313Z,97348.38
2023-01-17T14:26:38.436Z,97362.59
2023-01-17T14:29:42.999Z,97365.22
2023-01-17T14:32:12.712Z,97371.72
2023-01-17T14:34:40.284Z,97367.75
2023-01-17T14:37:18.733Z,97355.25
2023-01-17T14:39:47.207Z,97339.66
2023-01-17T14:42:16.221Z,97345.53
2023-01-17T14:44:49.256Z,97347.00
2023-01-17T14:47:17.009Z,97350.19
2023-01-17T14:49:44.684Z,97358.72
2023-01-17T14:52:17.240Z,97363.34
2023-01-17T14:54:48.708Z,97371.78
2023-01-17T14:57:25.774Z,97375.53
2023-01-17T15:00:11.671Z,97389.06
2023-01-17T15:02:42.179Z,97397.78
2023-01-17T15:05:13.091Z,97402.22
2023-01-17T15:07:43.164Z,97412.91
2023-01-17T15:10:13.408Z,97445.50
2023-01-17T15:12:40.726Z,97445.72
2023-01-17T15:15:26.777Z,97450.56
2023-01-17T15:18:08.366Z,97462.41
2023-01-17T15:20:37.679Z,97480.56
2023-01-17T15:23:09.529Z,97501.88
2023-01-17T15:25:37.875Z,97499.53
2023-01-17T15:28:05.298Z,97511.41
2023-01-17T15:30:32.827Z,97528.78
2023-01-17T15:33:00.111Z,97540.19
2023-01-17T15:35:27.711Z,97547.56
2023-01-17T15:37:56.013Z,97562.28
2023-01-17T15:40:25.859Z,97566.97
2023-01-17T15:42:56.289Z,97581.75
2023-01-17T15:45:27.443Z,97593.66
2023-01-17T15:47:54.885Z,97616.03
2023-01-17T15:50:31.124Z,97623.44
2023-01-17T15:53:01.125Z,97637.09
2023-01-17T15:55:32.965Z,97651.31
2023-01-17T15:58:01.162Z,97653.94
2023-01-17T16:00:30.072Z,97660.38
2023-01-17T16:02:57.399Z,97677.22
2023-01-17T16:05:36.480Z,97681.66
2023-01-17T16:08:38.596Z,97689.06
2023-01-17T16:11:10.567Z,97698.81
2023-01-17T16:13:38.801Z,97699.16
2023-01-17T16:16:13.285Z,97706.06
2023-01-17T16:18:41.047Z,97716.59
2023-01-17T16:21:17.989Z,97728.38
2023-01-17T16:23:45.426Z,97735.56
2023-01-17T16:26:13.999Z,97754.97
2023-01-17T16:28:41.239Z,97759.88
2023-01-17T16:31:08.542Z,97763.69
2023-01-17T16:33:35.960Z,97772.56
2023-01-17T16:36:03.451Z,97778.97
2023-01-17T16:38:30.814Z,97781.41
2023-01-17T16:40:57.987Z,97782.19
2023-01-17T16:43:26.585Z,97783.88
2023-01-17T16:45:53.897Z,97789.06
2023-01-17T16:48:21.728Z,97799.16
2023-01-17T16:50:50.869Z,97809.38
2023-01-17T16:53:23.351Z,97812.59
2023-01-17T16:55:54.227Z,97827.25
2023-01-17T16:58:21.824Z,97831.09
2023-01-17T17:00:50.748Z,97838.25
2023-01-17T17:03:19.601Z,97844.34
2023-01-17T17:05:55.545Z,97858.25
2023-01-17T17:08:23.479Z,97862.22
2023-01-17T17:10:51.246Z,97873.50
2023-01-17T17:13:18.574Z,97871.97
2023-01-17T17:15:45.846Z,97886.78
2023-01-17T17:18:16.525Z,97898.34
2023-01-17T17:20:44.685Z,97901.88
2023-01-17T17:23:11.964Z,97915.91
2023-01-17T17:25:39.252Z,97924.88
2023-01-17T17:28:06.522Z,97938.75
2023-01-17T17:30:33.839Z,97945.44
2023-01-17T17:33:01.151Z,97961.44
2023-01-17T17:35:29.835Z,97973.66
2023-01-17T17:37:57.079Z,97978.38
2023-01-17T17:40:24.349Z,97989.50
2023-01-17T17:42:51.508Z,97994.25
2023-01-17T17:45:18.752Z,97999.38
2023-01-17T17:47:45.974Z,98011.88
2023-01-17T17:50:13.326Z,98017.19
2023-01-17T17:52:41.911Z,98029.69
2023-01-17T17:55:09.534Z,98041.00
2023-01-17T17:57:36.828Z,98038.72
2023-01-17T18:00:05.098Z,98047.69
2023-01-17T18:02:33.884Z,98055.19
2023-01-17T18:05:01.233Z,98052.72
2023-01-17T18:07:30.696Z,98064.00
2023-01-17T18:09:59.253Z,98072.78
2023-01-17T18:12:26.548Z,98075.97
2023-01-17T18:14:53.832Z,98080.25
2023-01-17T18:17:21.042Z,98090.91
2023-01-17T18:19:48.292Z,98093.47
2023-01-17T18:22:15.511Z,98092.81
2023-01-17T18:24:42.745Z,98091.16
2023-01-17T18:27:11.361Z,98097.88
2023-01-17T18:29:38.589Z,98096.91
2023-01-17T18:32:05.769Z,98102.41
2023-01-17T18:34:33.008Z,98109.09
2023-01-17T18:37:00.183Z,98118.22
2023-01-17T18:39:29.714Z,98125.25
2023-01-17T18:41:57.826Z,98129.19
2023-01-17T18:44:26.871Z,98126.69
2023-01-17T18:46:54.570Z,98141.28
2023-01-17T18:49:22.039Z,98143.72
2023-01-17T18:51:49.461Z,98150.75
2023-01-17T18:54:17.060Z,98158.06
2023-01-17T18:56:44.426Z,98152.03
2023-01-17T18:59:12.197Z,98150.38
2023-01-17T19:01:41.113Z,98152.47
2023-01-17T19:04:08.418Z,98147.44
2023-01-17T19:06:37.361Z,98154.69
2023-01-17T19:09:05.365Z,98153.50
2023-01-17T19:11:33.170Z,98155.00
2023-01-17T19:14:00.818Z,98151.59
2023-01-17T19:16:30.175Z,98158.31
2023-01-17T19:19:02.757Z,98152.84
2023-01-17T19:21:31.535Z,98156.47
2023-01-17T19:23:59.365Z,98158.09
2023-01-17T19:26:27.544Z,98161.63
2023-01-17T19:28:56.660Z,98160.53
2023-01-17T19:31:26.664Z,98153.06
2023-01-17T19:33:55.936Z,98152.84
2023-01-17T19:36:27.642Z,98145.09
2023-01-17T19:39:04.451Z,98151.78
2023-01-17T19:41:34.255Z,98163.63
2023-01-17T19:44:03.535Z,98159.03
2023-01-17T19:46:31.304Z,98162.09
2023-01-17T19:48:58.909Z,98164.41
2023-01-17T19:51:27.861Z,98157.50
2023-01-17T19:53:55.474Z,98173.19
2023-01-17T19:56:24.994Z,98154.53
2023-01-17T19:58:52.800Z,98164.19
2023-01-17T20:01:22.645Z,98165.72
2023-01-17T20:03:50.258Z,98157.19
2023-01-17T20:06:20.226Z,98163.56
2023-01-17T20:08:49.289Z,98162.66
2023-01-17T20:11:18.801Z,98155.00
2023-01-17T20:13:46.416Z,98157.41
2023-01-17T20:16:15.320Z,98161.03
2023-01-17T20:18:43.334Z,98152.16
2023-01-17T20:21:12.881Z,98157.88
2023-01-17T20:23:41.800Z,98162.91
2023-01-17T20:26:11.282Z,98156.47
2023-01-17T20:28:43.565Z,98162.44
2023-01-17T20:31:12.642Z,98158.97
2023-01-17T20:33:40.623Z,98157.63
2023-01-17T20:36:11.413Z,98151.81
2023-01-17T20:38:39.384Z,98150.50
2023-01-17T20:41:06.640Z,98154.47
2023-01-17T20:43:35.314Z,98156.34
2023-01-17T20:46:02.561Z,98152.50
2023-01-17T20:48:29.925Z,98149.88
2023-01-17T20:51:02.432Z,98152.28
2023-01-17T20:53:29.724Z,98150.75
2023-01-17T20:55:57.138Z,98161.50
2023-01-17T20:58:24.569Z,98159.31
2023-01-17T21:00:54.394Z,98159.31
2023-01-17T21:03:21.861Z,98167.31
2023-01-17T21:05:49.188Z,98161.72
2023-01-17T21:08:18.506Z,98166.31
2023-01-17T21:10:47.314Z,98169.50
2023-01-17T21:13:15.508Z,98178.25
2023-01-17T21:15:43.287Z,98182.66
2023-01-17T21:18:11.977Z,98181.34
2023-01-17T21:20:39.216Z,98187.38
2023-01-17T21:23:06.652Z,98185.84
2023-01-17T21:25:34.138Z,98186.69
2023-01-17T21:28:01.612Z,98191.63
2023-01-17T21:30:28.870Z,98192.50
2023-01-17T21:32:56.034Z,98192.50
2023-01-17T21:35:24.746Z,98201.59
2023-01-17T21:37:52.169Z,98195.25
2023-01-17T21:40:19.431Z,98203.22
2023-01-17T21:42:46.744Z,98197.00
2023-01-17T21:45:14.207Z,98203.88
2023-01-17T21:47:41.524Z,98207.28
2023-01-17T21:50:09.984Z,98207.84
2023-01-17T21:52:38.740Z,98214.31
2023-01-17T21:55:06.746Z,98213.88
2023-01-17T21:57:33.993Z,98216.50
2023-01-17T22:00:01.229Z,98214.53
2023-01-17T22:02:28.496Z,98221.13
2023-01-17T22:04:55.764Z,98218.38
2023-01-17T22:07:23.323Z,98217.72
2023-01-17T22:09:51.941Z,98227.13
2023-01-17T22:12:19.169Z,98225.91
2023-01-17T22:14:46.379Z,98221.75
2023-01-17T22:17:13.652Z,98228.00
2023-01-17T22:19:40.929Z,98230.72
2023-01-17T22:22:08.241Z,98235.22
2023-01-17T22:24:35.558Z,98243.97
2023-01-17T22:27:04.315Z,98246.72
2023-01-17T22:29:31.543Z,98251.31
2023-01-17T22:31:58.767Z,98257.34
2023-01-17T22:34:25.956Z,98260.06
2023-01-17T22:36:53.271Z,98271.38
2023-01-17T22:39:20.463Z,98266.72
2023-01-17T22:41:47.722Z,98269.47
2023-01-17T22:44:16.339Z,98273.09
2023-01-17T22:46:43.689Z,98285.91
2023-01-17T22:49:13.111Z,98285.50
2023-01-17T22:51:40.410Z,98293.81
2023-01-17T22:54:07.636Z,98293.47
2023-01-17T22:56:35.693Z,98296.53
2023-01-17T22:59:02.999Z,98292.78
2023-01-17T23:01:32.713Z,98296.31
2023-01-17T23:04:02.485Z,98313.25
2023-01-17T23:06:32.464Z,98310.97
2023-01-17T23:09:01.211Z,98312.47
2023-01-17T23:11:30.564Z,98318.50
2023-01-17T23:13:57.769Z,98318.84
2023-01-17T23:16:25.006Z,98325.84
2023-01-17T23:18:53.619Z,98334.81
2023-01-17T23:21:20.856Z,98341.47
2023-01-17T23:23:48.017Z,98343.56
2023-01-17T23:26:15.398Z,98348.59
2023-01-17T23:28:42.687Z,98349.47
2023-01-17T23:31:10.046Z,98347.16
2023-01-17T23:33:37.297Z,98356.66
2023-01-17T23:36:06.251Z,98364.34
2023-01-17T23:38:33.435Z,98368.28
2023-01-17T23:41:02.438Z,98369.06
2023-01-17T23:43:29.828Z,98368.81
2023-01-17T23:45:57.129Z,98382.69
2023-01-17T23:48:25.162Z,98380.28
2023-01-17T23:50:57.791Z,98380.38
2023-01-17T23:53:26.813Z,98388.31
2023-01-17T23:55:55.627Z,98392.31
2023-01-17T23:58:25.305Z,98403.78
